West Mansfield, Ohio
Current Conditions -  °F | °C
As of 8:50 PM on Monday 24 Nov 2014 (Local Time) from KEDJ Reporting Station
Overcast Overcast  
Wind Chill: 26°   Ceiling: 3800
Heat Index: 37°   Visibility: 10mi
Dew Point: 28°   Wind: 23mph
Humidity: 70%   Direction: 220°SW
Pressure: 29.8"   Gusts: 29mph
Location:  40.4°N, 83.55°W
Report Text: KEDJ 250150Z AUTO 22020G25KT 10SM SCT031 OVC038 03/M02 A2980 RMK AO1
Loading
Personal Weather Stations






























Interactive Weather Map New forecast layout! Learn more

10-Day Weather Forecast

Advertisements
Track Severe Weather on mobile